• Join FlightAware (Why Join?)
  • Login
  • US Flag 
02:34AM EDT


 

Airport Tracker/Info


-or-


 

Live Flight TrackerFlight Track Log ✈ GGN7280 ✈ 14-May-2013 ✈ CYYZ - KALB

Flight Track Log - Related Links

Times and Time Zones

All times are in EDT time to prevent confusion due to time zone crossing. See the GGN7280 flight status page for this flight to view local times or setup timezone preferences in your user account.

Time Position Orientation Groundspeed Altitude Reporting Facility
EDT Latitude Longitude Course Direction KTS MPH feet Rate Location/Type
09:27AM 43.6667 -79.5833 180° South 70 81 800  Level Toronto Center
09:28AM 43.6167 -79.5833 180° South 170 196 2,800 1,980 Climbing Toronto Center
09:29AM 43.5667 -79.5833 180° South 180 207 4,800 1,800 Climbing Toronto Center
09:30AM 43.5333 -79.5167 125° Southeast 210 242 6,400 1,140 Climbing Toronto Center
09:31AM 43.5167 -79.4333 105° East 230 265 7,100 780 Climbing Toronto Center
09:32AM 43.5000 -79.3333 103° East 250 288 8,000 960 Climbing Toronto Center
09:33AM 43.4833 -79.2500 105° East 250 288 9,100 1,140 Climbing Toronto Center
09:34AM 43.4667 -79.1500 103° East 250 288 10,300 960 Climbing Toronto Center
09:35AM 43.4667 -79.0667 90° East 250 288 11,100 360 Climbing Toronto Center
09:36AM 43.4500 -78.9667 103° East 270 311 11,100 300 Level Toronto Center
09:37AM 43.4500 -78.8500 90° East 270 311 11,800 900 Climbing Toronto Center
09:38AM 43.4333 -78.7667 105° East 260 299 13,000 1,200 Climbing Toronto Center
09:39AM 43.4167 -78.6667 103° East 260 299 14,300 1,200 Climbing Toronto Center
09:40AM 43.4186 -78.6056 87° East 257 296 15,300 1,200 Climbing Cleveland Center
09:41AM 43.4044 -78.5058 101° East 257 296 16,600 1,140 Climbing Cleveland Center
09:42AM 43.3942 -78.4006 98° East 264 304 17,600 1,080 Climbing Cleveland Center
09:43AM 43.3836 -78.2925 98° East 276 318 18,800 1,140 Climbing Cleveland Center
09:44AM 43.3733 -78.1842 97° East 281 323 19,900 1,200 Climbing Cleveland Center
09:45AM 43.3564 -78.0764 102° East 281 323 21,200 1,260 Climbing Cleveland Center
09:46AM 43.3436 -77.9769 100° East 276 318 22,500 1,140 Climbing Cleveland Center
09:47AM 43.3308 -77.8719 99° East 276 318 23,500 900 Climbing Cleveland Center
09:48AM 43.3178 -77.7642 99° East 276 318 24,400 720 Climbing Cleveland Center
09:49AM 43.3028 -77.6592 101° East 276 318 25,000 300 Climbing Cleveland Center
09:50AM 43.2894 -77.5428 99° East 281 323 25,000  Level Cleveland Center
09:51AM 43.2758 -77.4267 99° East 300 345 25,000  Level Cleveland Center
09:53AM 43.2417 -77.1867 101° East 313 360 25,000  Level Boston Center
09:54AM 43.2256 -77.0714 101° East 308 354 25,000  Level Boston Center
09:55AM 43.2136 -76.9536 98° East 308 354 25,000  Level Boston Center
09:56AM 43.1972 -76.8356 101° East 308 354 25,000  Level Boston Center
09:57AM 43.1808 -76.7231 101° East 308 354 25,000  Level Boston Center
09:58AM 43.1678 -76.6197 100° East 308 354 25,000  Level Boston Center
09:59AM 43.1531 -76.5075 100° East 303 349 25,000  Level Boston Center
10:00AM 43.1364 -76.3956 101° East 298 343 25,000  Level Boston Center
10:01AM 43.1236 -76.2781 98° East 298 343 25,000 -300 Level Boston Center
10:02AM 43.1064 -76.1658 102° East 298 343 24,500 -720 Descending Boston Center
10:03AM 43.0892 -76.0539 102° East 298 343 23,600 -1,020 Descending Boston Center
10:04AM 43.0739 -75.9422 101° East 298 343 22,500 -1,080 Descending Boston Center
10:05AM 43.0586 -75.8333 101° East 298 343 21,500 -1,200 Descending Boston Center
10:06AM 43.0431 -75.7217 101° East 298 343 20,100 -1,380 Descending Boston Center
10:07AM 43.0272 -75.6128 101° East 298 343 18,800 -1,440 Descending Boston Center
10:08AM 43.0094 -75.5011 102° East 298 343 17,300 -1,260 Descending Boston Center
10:09AM 42.9958 -75.3897 99° East 298 343 16,300 -1,200 Descending Boston Center
10:10AM 42.9778 -75.2811 103° East 298 343 15,000 -1,200 Descending Boston Center
10:11AM 42.9658 -75.1725 99° East 298 343 13,900 -1,200 Descending Boston Center
10:12AM 42.9725 -75.0650 85° East 293 337 12,600 -1,380 Descending Boston Center
10:13AM 42.9736 -75.0139 88° East 284 327 11,900 -1,020 Descending Boston Center
10:13AM 42.9789 -74.9631 82° East 287 330 11,600 -600 Descending Boston Center